Chumphon Airport
VTSE : now visible

Airfield :











YOU CAN JOIN US ON...

 
LOGIN :

Register | Disclaimer

   EN    FR    IT 

 









Legend :    VFR   Marginal VFR   IFR   Intensive IFR   Very Intensive IFR
Visi :
Ceiling :
>= 8 km
>= 3000ft
5 to 8 km
1000 to 3000 ft
1500m to 5 km
500 to 1000 ft
800 to 1500m
200 to 500 ft
< 800m
< 200 ft
Symbols :   Thunderstorms  Fog  Heavy snow  Heavy precipitations  Wind > 20 kt






- Airport Elevation : 18 ft
- IATA code : CJM


VTSE - Chumphon

CURRENT METAR :
  • 290600Z 27010KT 230V300 9999 FEW020 SCT100 35/23 Q1006 NOSIG

EXPIRED METARs :
  • 290500Z 24011KT 210V290 9999 FEW020 SCT100 35/23 Q1007 NOSIG
  • 290400Z 28009KT 240V320 9999 FEW020 SCT100 34/23 Q1008 NOSIG
  • 290300Z 26008KT 220V280 9999 FEW020 SCT100 33/25 Q1008 NOSIG
  • 290200Z 24005KT 210V270 9999 FEW020 BKN100 30/26 Q1008 NOSIG

TAF TAF VTSE
Valid from the 29 at 06:00 until the 30 at 06:00 UTC


290500Z 2906/3006 26008KT 9999 FEW020
VTBB FIR / Asia



MET'MAP, your aeronautical weather chart ! - Copyright ORBIFLY December 2007 - Disclaimer

ORBIFLY MET'MAP TEAM :

Programming & Development : Alexandra Zaïnal
Original concept : Baudouin d'Aumeries
Technical & hardware support : Manuel Goepfert
Assistance : Marc-Olivier Méhu




SOURCES & CREDITS :

   NOAA       Earth
Advisory